createdAt,value
2023-04-08T00:02:18.185Z,11.40
2023-04-08T00:04:45.915Z,11.30
2023-04-08T00:07:13.374Z,11.95
2023-04-08T00:09:41.139Z,12.23
2023-04-08T00:12:08.575Z,11.63
2023-04-08T00:14:35.980Z,11.65
2023-04-08T00:17:03.320Z,11.27
2023-04-08T00:19:31.035Z,11.13
2023-04-08T00:21:58.346Z,10.48
2023-04-08T00:24:25.652Z,10.18
2023-04-08T00:26:52.976Z,10.23
2023-04-08T00:29:20.574Z,10.73
2023-04-08T00:31:47.954Z,11.02
2023-04-08T00:34:15.472Z,10.00
2023-04-08T00:36:42.852Z,10.02
2023-04-08T00:39:10.334Z,9.73
2023-04-08T00:41:37.696Z,9.45
2023-04-08T00:44:04.989Z,10.20
2023-04-08T00:46:37.344Z,9.18
2023-04-08T00:49:05.529Z,9.73
2023-04-08T00:51:33.040Z,9.45
2023-04-08T00:54:04.736Z,9.20
2023-04-08T00:56:32.822Z,8.65
2023-04-08T00:59:03.453Z,9.10
2023-04-08T01:01:45.873Z,8.60
2023-04-08T01:04:35.095Z,8.90
2023-04-08T01:07:11.962Z,8.63
2023-04-08T01:09:39.573Z,8.82
2023-04-08T01:12:08.210Z,8.68
2023-04-08T01:14:38.189Z,8.25
2023-04-08T01:17:05.696Z,8.55
2023-04-08T01:19:37.911Z,8.57
2023-04-08T01:22:19.055Z,8.82
2023-04-08T01:24:46.376Z,8.18
2023-04-08T01:27:14.203Z,8.52
2023-04-08T01:29:41.945Z,8.18
2023-04-08T01:32:09.265Z,8.20
2023-04-08T01:34:36.595Z,8.70
2023-04-08T01:37:03.912Z,8.73
2023-04-08T01:39:31.277Z,8.48
2023-04-08T01:41:59.197Z,8.75
2023-04-08T01:44:26.789Z,8.32
2023-04-08T01:46:54.333Z,9.07
2023-04-08T01:49:21.770Z,8.68
2023-04-08T01:51:49.100Z,9.20
2023-04-08T01:54:16.444Z,8.90
2023-04-08T01:56:43.789Z,9.10
2023-04-08T01:59:14.285Z,9.30
2023-04-08T02:01:42.760Z,8.80
2023-04-08T02:04:10.423Z,9.55
2023-04-08T02:06:37.983Z,9.43
2023-04-08T02:09:05.795Z,9.40
2023-04-08T02:11:33.095Z,9.02
2023-04-08T02:14:00.475Z,8.75
2023-04-08T02:16:35.123Z,9.02
2023-04-08T02:19:08.525Z,9.30
2023-04-08T02:21:39.040Z,9.27
2023-04-08T02:24:06.358Z,9.25
2023-04-08T02:26:34.405Z,9.30
2023-04-08T02:29:02.435Z,9.15
2023-04-08T02:31:29.832Z,9.70
2023-04-08T02:33:57.791Z,9.98
2023-04-08T02:36:25.983Z,9.65
2023-04-08T02:38:53.366Z,9.18
2023-04-08T02:41:21.304Z,9.48
2023-04-08T02:43:48.950Z,9.77
2023-04-08T02:46:16.388Z,9.38
2023-04-08T02:48:43.830Z,9.80
2023-04-08T02:51:11.179Z,9.75
2023-04-08T02:53:38.573Z,9.32
2023-04-08T02:56:06.306Z,9.77
2023-04-08T02:58:34.196Z,10.05
2023-04-08T03:01:01.533Z,10.27
2023-04-08T03:03:30.295Z,10.10
2023-04-08T03:05:57.958Z,10.73
2023-04-08T03:08:25.843Z,10.55
2023-04-08T03:10:53.200Z,10.75
2023-04-08T03:13:20.651Z,10.43
2023-04-08T03:15:47.968Z,10.60
2023-04-08T03:18:15.491Z,10.55
2023-04-08T03:20:42.807Z,11.15
2023-04-08T03:23:10.326Z,10.25
2023-04-08T03:25:37.678Z,10.98
2023-04-08T03:28:05.057Z,11.35
2023-04-08T03:30:32.522Z,11.20
2023-04-08T03:32:59.931Z,11.00
2023-04-08T03:35:27.281Z,11.68
2023-04-08T03:37:56.022Z,11.15
2023-04-08T03:40:23.794Z,11.82
2023-04-08T03:42:51.110Z,11.80
2023-04-08T03:45:18.542Z,11.85
2023-04-08T03:47:45.863Z,11.40
2023-04-08T03:50:13.296Z,12.57
2023-04-08T03:52:43.540Z,11.65
2023-04-08T03:55:10.835Z,12.20
2023-04-08T03:57:38.140Z,11.98
2023-04-08T04:00:06.670Z,12.20
2023-04-08T04:02:39.594Z,11.95
2023-04-08T04:05:07.356Z,12.05
2023-04-08T04:07:34.696Z,12.30
2023-04-08T04:10:02.236Z,13.05
2023-04-08T04:12:29.626Z,12.90
2023-04-08T04:14:56.932Z,13.00
2023-04-08T04:17:24.279Z,13.10
2023-04-08T04:19:52.773Z,12.48
2023-04-08T04:22:20.097Z,12.30
2023-04-08T04:24:48.607Z,13.48
2023-04-08T04:27:17.578Z,14.13
2023-04-08T04:29:44.966Z,12.75
2023-04-08T04:32:12.270Z,13.07
2023-04-08T04:34:39.557Z,13.55
2023-04-08T04:37:06.911Z,14.38
2023-04-08T04:39:34.233Z,13.93
2023-04-08T04:42:01.581Z,14.13
2023-04-08T04:44:28.894Z,14.25
2023-04-08T04:46:56.163Z,13.88
2023-04-08T04:49:23.500Z,14.27
2023-04-08T04:51:50.811Z,14.50
2023-04-08T04:54:18.136Z,14.27
2023-04-08T04:56:45.596Z,15.15
2023-04-08T04:59:13.046Z,14.93
2023-04-08T05:01:41.241Z,14.90
2023-04-08T05:04:08.713Z,15.32
2023-04-08T05:06:36.003Z,15.93
2023-04-08T05:09:03.342Z,15.77
2023-04-08T05:11:30.815Z,15.73
2023-04-08T05:13:58.179Z,17.30
2023-04-08T05:16:25.490Z,15.95
2023-04-08T05:18:53.065Z,16.70
2023-04-08T05:21:20.712Z,16.13
2023-04-08T05:23:48.019Z,16.48
2023-04-08T05:26:16.435Z,17.38
2023-04-08T05:28:43.955Z,18.27
2023-04-08T05:31:11.986Z,17.95
2023-04-08T05:33:39.411Z,18.25
2023-04-08T05:36:06.917Z,18.02
2023-04-08T05:38:34.467Z,17.38
2023-04-08T05:41:01.798Z,18.17
2023-04-08T05:43:29.164Z,17.45
2023-04-08T05:45:56.526Z,17.38
2023-04-08T05:48:23.840Z,18.50
2023-04-08T05:50:51.333Z,17.70
2023-04-08T05:53:18.682Z,17.15
2023-04-08T05:55:46.047Z,17.65
2023-04-08T05:58:13.413Z,17.90
2023-04-08T06:00:40.926Z,17.63
2023-04-08T06:03:08.386Z,18.70
2023-04-08T06:05:36.072Z,18.30
2023-04-08T06:08:03.400Z,17.65
2023-04-08T06:10:31.073Z,18.10
2023-04-08T06:12:58.383Z,16.67
2023-04-08T06:15:26.449Z,16.60
2023-04-08T06:17:53.831Z,17.80
2023-04-08T06:20:21.503Z,17.42
2023-04-08T06:22:48.776Z,16.85
2023-04-08T06:25:17.017Z,17.73
2023-04-08T06:27:44.348Z,17.77
2023-04-08T06:30:11.918Z,17.25
2023-04-08T06:32:39.208Z,17.73
2023-04-08T06:35:07.726Z,18.05
2023-04-08T06:37:38.607Z,17.70
2023-04-08T06:40:06.786Z,17.77
2023-04-08T06:42:34.221Z,18.75
2023-04-08T06:45:11.566Z,18.38
2023-04-08T06:47:38.916Z,17.98
2023-04-08T06:50:06.994Z,17.98
2023-04-08T06:52:34.380Z,18.00
2023-04-08T06:55:01.685Z,18.02
2023-04-08T06:57:29.079Z,17.80
2023-04-08T06:59:56.523Z,18.00
2023-04-08T07:02:24.300Z,18.67
2023-04-08T07:04:51.663Z,18.52
2023-04-08T07:07:19.015Z,18.10
2023-04-08T07:09:46.844Z,18.23
2023-04-08T07:12:14.187Z,18.45
2023-04-08T07:14:41.514Z,19.23
2023-04-08T07:17:08.938Z,19.50
2023-04-08T07:19:36.566Z,19.75
2023-04-08T07:22:03.850Z,19.52
2023-04-08T07:24:31.341Z,18.50
2023-04-08T07:26:58.615Z,18.92
2023-04-08T07:29:26.013Z,19.42
2023-04-08T07:31:53.378Z,19.88
2023-04-08T07:34:20.759Z,19.38
2023-04-08T07:36:48.100Z,18.25
2023-04-08T07:39:15.556Z,17.63
2023-04-08T07:41:42.927Z,17.08
2023-04-08T07:44:10.478Z,17.55
2023-04-08T07:46:38.870Z,18.83
2023-04-08T07:49:06.781Z,16.92
2023-04-08T07:51:34.712Z,16.90
2023-04-08T07:54:01.991Z,16.50
2023-04-08T07:56:29.357Z,17.50
2023-04-08T07:58:56.898Z,16.67
2023-04-08T08:01:24.443Z,16.88
2023-04-08T08:03:52.607Z,15.15
2023-04-08T08:06:20.937Z,15.40
2023-04-08T08:08:48.484Z,15.35
2023-04-08T08:11:15.817Z,14.88
2023-04-08T08:13:43.217Z,15.23
2023-04-08T08:16:11.915Z,14.68
2023-04-08T08:18:40.619Z,16.15
2023-04-08T08:21:08.592Z,15.93
2023-04-08T08:23:36.029Z,14.95
2023-04-08T08:26:07.578Z,14.90
2023-04-08T08:28:34.921Z,15.48
2023-04-08T08:31:03.415Z,15.93
2023-04-08T08:33:30.897Z,14.93
2023-04-08T08:35:58.555Z,16.30
2023-04-08T08:38:26.115Z,15.60
2023-04-08T08:40:59.911Z,16.50
2023-04-08T08:43:27.778Z,16.13
2023-04-08T08:45:55.172Z,15.23
2023-04-08T08:48:22.508Z,16.20
2023-04-08T08:50:51.179Z,16.73
2023-04-08T08:53:19.747Z,16.35
2023-04-08T08:58:17.311Z,17.38
2023-04-08T09:00:45.120Z,17.52
2023-04-08T09:03:19.898Z,17.40
2023-04-08T09:05:55.874Z,17.33
2023-04-08T09:08:27.028Z,16.80
2023-04-08T09:10:55.366Z,16.85
2023-04-08T09:13:25.712Z,16.48
2023-04-08T09:16:04.029Z,16.45
2023-04-08T09:18:32.430Z,14.40
2023-04-08T09:21:01.893Z,14.40
2023-04-08T09:23:40.000Z,14.88
2023-04-08T09:26:11.026Z,14.15
2023-04-08T09:28:39.001Z,13.95
2023-04-08T09:31:48.439Z,14.02
2023-04-08T09:34:21.814Z,14.10
2023-04-08T09:36:49.837Z,14.23
2023-04-08T09:39:17.321Z,14.93
2023-04-08T09:41:44.997Z,14.65
2023-04-08T09:44:12.500Z,15.40
2023-04-08T09:46:54.715Z,15.98
2023-04-08T09:49:34.657Z,15.00
2023-04-08T09:52:15.748Z,14.40
2023-04-08T09:54:55.264Z,14.73
2023-04-08T09:57:29.176Z,16.05
2023-04-08T10:00:10.337Z,16.25
2023-04-08T10:02:57.274Z,16.10
2023-04-08T10:05:25.071Z,16.13
2023-04-08T10:07:52.468Z,16.33
2023-04-08T10:10:20.859Z,15.63
2023-04-08T10:12:48.585Z,16.42
2023-04-08T10:15:29.143Z,16.70
2023-04-08T10:18:03.047Z,16.42
2023-04-08T10:20:36.549Z,16.63
2023-04-08T10:23:04.631Z,17.10
2023-04-08T10:25:35.640Z,17.33
2023-04-08T10:28:23.480Z,18.20
2023-04-08T10:30:54.720Z,17.95
2023-04-08T10:33:25.217Z,17.52
2023-04-08T10:36:10.399Z,18.40
2023-04-08T10:38:42.674Z,18.90
2023-04-08T10:41:21.554Z,18.23
2023-04-08T10:43:49.201Z,18.60
2023-04-08T10:46:17.294Z,18.92
2023-04-08T10:48:44.927Z,19.83
2023-04-08T10:51:12.291Z,18.30
2023-04-08T10:53:39.957Z,18.35
2023-04-08T10:56:08.655Z,19.55
2023-04-08T10:58:36.857Z,18.52
2023-04-08T11:01:07.751Z,18.73
2023-04-08T11:03:37.261Z,19.40
2023-04-08T11:06:05.214Z,19.45
2023-04-08T11:08:33.189Z,18.90
2023-04-08T11:11:05.495Z,20.45
2023-04-08T11:13:33.189Z,18.67
2023-04-08T11:16:00.746Z,19.50
2023-04-08T11:18:28.652Z,19.05
2023-04-08T11:20:57.663Z,19.55
2023-04-08T11:23:26.486Z,19.42
2023-04-08T11:25:53.818Z,19.05
2023-04-08T11:28:21.358Z,18.75
2023-04-08T11:30:49.633Z,18.15
2023-04-08T11:33:17.492Z,19.30
2023-04-08T11:35:44.919Z,18.35
2023-04-08T11:38:12.380Z,19.67
2023-04-08T11:40:39.746Z,19.58
2023-04-08T11:43:11.027Z,19.80
2023-04-08T11:45:39.378Z,18.67
2023-04-08T11:48:14.149Z,20.75
2023-04-08T11:50:42.167Z,20.60
2023-04-08T11:53:22.299Z,19.80
2023-04-08T11:55:49.625Z,20.83
2023-04-08T11:58:17.241Z,19.80
2023-04-08T12:00:45.611Z,18.85
2023-04-08T12:03:13.544Z,19.33
2023-04-08T12:05:41.336Z,18.80
2023-04-08T12:08:08.690Z,20.05
2023-04-08T12:10:36.061Z,17.17
2023-04-08T12:13:03.399Z,17.65
2023-04-08T12:15:30.785Z,17.55
2023-04-08T12:17:58.119Z,17.05
2023-04-08T12:20:25.428Z,17.65
2023-04-08T12:22:52.758Z,16.52
2023-04-08T12:25:20.375Z,17.38
2023-04-08T12:27:47.692Z,16.58
2023-04-08T12:30:16.510Z,15.30
2023-04-08T12:32:45.952Z,15.38
2023-04-08T12:35:13.804Z,15.75
2023-04-08T12:37:41.083Z,16.67
2023-04-08T12:40:08.870Z,15.23
2023-04-08T12:42:36.239Z,16.35
2023-04-08T12:45:03.767Z,15.52
2023-04-08T12:47:31.245Z,16.10
2023-04-08T12:49:58.648Z,15.65
2023-04-08T12:52:26.016Z,15.60
2023-04-08T12:54:53.432Z,16.02
2023-04-08T12:57:20.881Z,15.18
2023-04-08T12:59:48.881Z,14.32
2023-04-08T13:02:16.530Z,15.00
2023-04-08T13:04:44.161Z,13.93
2023-04-08T13:07:11.587Z,15.50
2023-04-08T13:09:38.908Z,15.00
2023-04-08T13:12:06.257Z,14.68
2023-04-08T13:14:33.651Z,15.18
2023-04-08T13:17:00.996Z,15.25
2023-04-08T13:19:28.891Z,14.68
2023-04-08T13:21:56.244Z,14.07
2023-04-08T13:24:24.035Z,14.55
2023-04-08T13:26:51.551Z,14.85
2023-04-08T13:29:18.867Z,14.05
2023-04-08T13:31:46.481Z,14.07
2023-04-08T13:34:13.813Z,14.27
2023-04-08T13:36:41.096Z,13.15
2023-04-08T13:39:08.427Z,13.38
2023-04-08T13:41:35.946Z,14.15
2023-04-08T13:44:03.960Z,13.35
2023-04-08T13:46:31.401Z,14.95
2023-04-08T13:48:58.886Z,13.93
2023-04-08T13:51:27.393Z,13.80
2023-04-08T13:53:54.848Z,13.70
2023-04-08T13:56:22.212Z,13.63
2023-04-08T13:58:56.529Z,13.07
2023-04-08T14:01:24.634Z,14.57
2023-04-08T14:03:52.242Z,14.15
2023-04-08T14:06:19.617Z,13.77
2023-04-08T14:08:46.892Z,12.88
2023-04-08T14:11:14.206Z,14.55
2023-04-08T14:13:41.476Z,13.45
2023-04-08T14:16:09.099Z,16.15
2023-04-08T14:18:36.508Z,13.70
2023-04-08T14:21:04.160Z,13.23
2023-04-08T14:23:31.515Z,13.88
2023-04-08T14:25:58.884Z,13.23
2023-04-08T14:28:26.723Z,14.13
2023-04-08T14:30:54.047Z,13.77
2023-04-08T14:33:21.424Z,13.95
2023-04-08T14:35:48.754Z,12.25
2023-04-08T14:38:16.189Z,12.75
2023-04-08T14:40:43.471Z,13.60
2023-04-08T14:43:10.779Z,12.82
2023-04-08T14:45:38.063Z,13.10
2023-04-08T14:48:05.686Z,13.57
2023-04-08T14:50:33.091Z,12.73
2023-04-08T14:53:01.104Z,12.00
2023-04-08T14:55:29.995Z,14.10
2023-04-08T14:57:59.723Z,13.55
2023-04-08T15:00:28.315Z,15.68
2023-04-08T15:02:55.980Z,13.82
2023-04-08T15:05:23.744Z,14.15
2023-04-08T15:07:51.090Z,13.15
2023-04-08T15:10:18.461Z,13.98
2023-04-08T15:12:46.744Z,14.52
2023-04-08T15:15:14.188Z,14.30
2023-04-08T15:17:41.529Z,14.13
2023-04-08T15:20:09.467Z,14.43
2023-04-08T15:22:37.037Z,14.13
2023-04-08T15:25:05.460Z,14.68
2023-04-08T15:27:32.909Z,13.70
2023-04-08T15:30:00.413Z,14.75
2023-04-08T15:32:27.755Z,15.77
2023-04-08T15:34:55.229Z,16.77
2023-04-08T15:37:23.102Z,15.80
2023-04-08T15:39:50.764Z,15.63
2023-04-08T15:42:18.055Z,16.02
2023-04-08T15:44:45.455Z,15.85
2023-04-08T15:47:12.976Z,16.95
2023-04-08T15:49:40.405Z,15.32
2023-04-08T15:52:07.771Z,19.23
2023-04-08T15:54:35.170Z,17.17
2023-04-08T15:57:05.082Z,16.60
2023-04-08T15:59:32.496Z,17.55
2023-04-08T16:02:00.116Z,16.80
2023-04-08T16:04:27.956Z,16.98
2023-04-08T16:06:55.416Z,18.65
2023-04-08T16:09:25.634Z,17.92
2023-04-08T16:11:53.434Z,20.55
2023-04-08T16:14:20.818Z,18.67
2023-04-08T16:16:49.217Z,18.55
2023-04-08T16:19:16.713Z,18.88
2023-04-08T16:21:44.583Z,19.85
2023-04-08T16:24:11.874Z,18.90
2023-04-08T16:26:39.431Z,19.23
2023-04-08T16:29:07.527Z,18.80
2023-04-08T16:31:34.848Z,17.83
2023-04-08T16:34:02.219Z,17.73
2023-04-08T16:36:29.558Z,18.00
2023-04-08T16:38:56.899Z,17.63
2023-04-08T16:41:24.350Z,16.80
2023-04-08T16:43:51.979Z,17.40
2023-04-08T16:46:19.615Z,17.63
2023-04-08T16:48:46.933Z,18.25
2023-04-08T16:51:14.267Z,17.55
2023-04-08T16:53:42.578Z,16.52
2023-04-08T16:56:13.982Z,16.50
2023-04-08T16:58:41.398Z,23.75
2023-04-08T17:01:13.988Z,16.25
2023-04-08T17:03:41.960Z,16.45
2023-04-08T17:06:10.441Z,16.13
2023-04-08T17:08:38.411Z,16.33
2023-04-08T17:11:10.712Z,16.40
2023-04-08T17:13:39.423Z,16.63
2023-04-08T17:16:07.315Z,16.95
2023-04-08T17:18:34.690Z,15.88
2023-04-08T17:21:02.357Z,15.80
2023-04-08T17:23:29.669Z,17.13
2023-04-08T17:25:57.155Z,16.67
2023-04-08T17:28:24.649Z,18.33
2023-04-08T17:30:52.174Z,17.08
2023-04-08T17:33:19.627Z,16.13
2023-04-08T17:35:46.958Z,15.55
2023-04-08T17:38:14.243Z,15.02
2023-04-08T17:40:41.653Z,15.43
2023-04-08T17:43:09.015Z,14.75
2023-04-08T17:45:36.598Z,15.55
2023-04-08T17:48:07.435Z,15.05
2023-04-08T17:50:36.258Z,16.05
2023-04-08T17:53:04.180Z,15.48
2023-04-08T17:55:31.508Z,15.40
2023-04-08T17:57:58.879Z,15.82
2023-04-08T18:00:26.586Z,15.93
2023-04-08T18:02:53.987Z,15.20
2023-04-08T18:05:21.867Z,14.85
2023-04-08T18:07:49.228Z,16.27
2023-04-08T18:10:17.325Z,15.35
2023-04-08T18:12:44.613Z,15.68
2023-04-08T18:15:12.001Z,15.50
2023-04-08T18:17:39.304Z,14.88
2023-04-08T18:20:07.330Z,14.45
2023-04-08T18:22:34.633Z,15.57
2023-04-08T18:25:01.951Z,15.75
2023-04-08T18:27:29.262Z,15.25
2023-04-08T18:29:56.638Z,16.70
2023-04-08T18:32:24.035Z,15.10
2023-04-08T18:34:52.553Z,15.45
2023-04-08T18:37:21.092Z,16.23
2023-04-08T18:39:48.556Z,15.88
2023-04-08T18:42:16.205Z,15.57
2023-04-08T18:44:43.496Z,17.13
2023-04-08T18:47:11.335Z,16.27
2023-04-08T18:49:38.674Z,16.05
2023-04-08T18:52:06.732Z,16.83
2023-04-08T18:54:34.125Z,17.13
2023-04-08T18:57:01.486Z,16.02
2023-04-08T18:59:28.911Z,15.63
2023-04-08T19:01:56.552Z,15.77
2023-04-08T19:04:23.983Z,16.90
2023-04-08T19:06:51.518Z,15.85
2023-04-08T19:09:19.187Z,17.30
2023-04-08T19:11:48.303Z,16.75
2023-04-08T19:14:16.051Z,16.65
2023-04-08T19:16:43.577Z,16.83
2023-04-08T19:19:11.001Z,16.73
2023-04-08T19:21:38.311Z,17.40
2023-04-08T19:24:06.316Z,16.90
2023-04-08T19:26:33.931Z,16.05
2023-04-08T19:29:01.364Z,15.77
2023-04-08T19:31:28.700Z,16.38
2023-04-08T19:33:55.993Z,15.65
2023-04-08T19:36:23.321Z,16.60
2023-04-08T19:38:50.635Z,16.73
2023-04-08T19:41:18.025Z,16.10
2023-04-08T19:43:45.319Z,16.15
2023-04-08T19:46:12.641Z,17.38
2023-04-08T19:48:39.951Z,17.35
2023-04-08T19:51:07.628Z,18.25
2023-04-08T19:53:34.977Z,17.60
2023-04-08T19:56:02.453Z,17.88
2023-04-08T19:58:29.856Z,18.48
2023-04-08T20:00:57.241Z,18.05
2023-04-08T20:03:24.821Z,18.55
2023-04-08T20:05:52.536Z,19.02
2023-04-08T20:08:19.840Z,18.58
2023-04-08T20:10:49.071Z,19.40
2023-04-08T20:13:16.573Z,18.95
2023-04-08T20:15:44.459Z,18.15
2023-04-08T20:18:12.329Z,19.33
2023-04-08T20:20:39.661Z,18.00
2023-04-08T20:23:06.979Z,17.95
2023-04-08T20:25:34.348Z,18.98
2023-04-08T20:28:01.750Z,18.10
2023-04-08T20:30:29.057Z,18.05
2023-04-08T20:32:56.503Z,18.02
2023-04-08T20:35:23.850Z,18.17
2023-04-08T20:37:51.221Z,18.00
2023-04-08T20:40:18.624Z,18.15
2023-04-08T20:42:46.190Z,19.58
2023-04-08T20:45:13.579Z,18.40
2023-04-08T20:47:40.939Z,18.45
2023-04-08T20:50:09.089Z,18.50
2023-04-08T20:52:36.390Z,19.75
2023-04-08T20:55:03.974Z,21.35
2023-04-08T20:57:31.367Z,20.35
2023-04-08T20:59:58.770Z,20.45
2023-04-08T21:02:26.446Z,21.15
2023-04-08T21:04:53.829Z,21.10
2023-04-08T21:07:21.171Z,20.92
2023-04-08T21:09:48.600Z,21.25
2023-04-08T21:12:15.970Z,19.80
2023-04-08T21:14:45.328Z,19.55
2023-04-08T21:17:12.722Z,20.50
2023-04-08T21:19:40.005Z,20.10
2023-04-08T21:22:07.392Z,20.20
2023-04-08T21:24:34.688Z,17.88
2023-04-08T21:27:02.680Z,16.35
2023-04-08T21:29:29.968Z,16.17
2023-04-08T21:31:57.464Z,14.63
2023-04-08T21:34:24.856Z,16.80
2023-04-08T21:36:52.129Z,14.35
2023-04-08T21:39:19.407Z,13.95
2023-04-08T21:41:47.978Z,12.27
2023-04-08T21:44:15.685Z,11.20
2023-04-08T21:46:42.994Z,11.88
2023-04-08T21:49:11.363Z,11.63
2023-04-08T21:51:39.429Z,11.95
2023-04-08T21:54:07.426Z,11.68
2023-04-08T21:56:34.885Z,10.85
2023-04-08T21:59:02.169Z,10.55
2023-04-08T22:01:29.718Z,10.38
2023-04-08T22:03:57.473Z,10.38
2023-04-08T22:06:31.998Z,11.32
2023-04-08T22:08:59.719Z,10.80
2023-04-08T22:11:27.072Z,10.55
2023-04-08T22:13:54.348Z,10.07
2023-04-08T22:16:21.707Z,10.82
2023-04-08T22:18:49.121Z,10.00
2023-04-08T22:21:16.526Z,10.02
2023-04-08T22:23:43.860Z,10.00
2023-04-08T22:26:11.184Z,9.68
2023-04-08T22:28:38.471Z,10.85
2023-04-08T22:31:09.790Z,10.02
2023-04-08T22:33:37.301Z,9.48
2023-04-08T22:36:05.249Z,9.57
2023-04-08T22:38:32.635Z,9.77
2023-04-08T22:40:59.959Z,10.07
2023-04-08T22:43:27.304Z,9.02
2023-04-08T22:45:54.670Z,9.18
2023-04-08T22:48:22.026Z,9.80
2023-04-08T22:50:49.306Z,12.07
2023-04-08T22:53:16.658Z,9.55
2023-04-08T22:55:43.920Z,9.80
2023-04-08T22:58:11.299Z,10.52
2023-04-08T23:00:38.618Z,10.50
2023-04-08T23:03:06.131Z,10.70
2023-04-08T23:05:33.673Z,10.25
2023-04-08T23:08:01.052Z,11.57
2023-04-08T23:10:28.383Z,10.70
2023-04-08T23:12:55.719Z,10.88
2023-04-08T23:15:23.822Z,10.73
2023-04-08T23:17:51.359Z,11.45
2023-04-08T23:20:18.684Z,11.88
2023-04-08T23:22:46.046Z,13.38
2023-04-08T23:25:13.466Z,13.52
2023-04-08T23:27:40.892Z,14.68
2023-04-08T23:30:08.652Z,14.02
2023-04-08T23:32:35.977Z,15.23
2023-04-08T23:35:03.495Z,14.90
2023-04-08T23:37:31.228Z,16.60
2023-04-08T23:39:58.542Z,16.45
2023-04-08T23:42:27.226Z,16.23
2023-04-08T23:44:55.279Z,16.50
2023-04-08T23:47:22.973Z,16.08
2023-04-08T23:49:50.397Z,16.02
2023-04-08T23:52:17.746Z,15.57
2023-04-08T23:54:45.016Z,14.95
2023-04-08T23:57:12.288Z,14.48
2023-04-08T23:59:39.578Z,12.45
